sensor_id;sensor_type;location;lat;lon;timestamp;pressure;altitude;pressure_sealevel;temperature;humidity
61900;BME280;47853;55.890;37.664;2022-12-18T00:02:02;98840.91;;;0.31;65.77
61900;BME280;47853;55.890;37.664;2022-12-18T00:04:27;98826.66;;;0.35;65.61
61900;BME280;47853;55.890;37.664;2022-12-18T00:06:53;98825.25;;;0.42;65.36
61900;BME280;47853;55.890;37.664;2022-12-18T00:09:19;98818.72;;;0.48;65.28
61900;BME280;47853;55.890;37.664;2022-12-18T00:11:45;98814.34;;;0.60;64.91
61900;BME280;47853;55.890;37.664;2022-12-18T00:14:11;98784.28;;;0.43;64.50
61900;BME280;47853;55.890;37.664;2022-12-18T00:16:37;98801.53;;;0.68;64.63
61900;BME280;47853;55.890;37.664;2022-12-18T00:19:04;98779.06;;;0.66;64.27
61900;BME280;47853;55.890;37.664;2022-12-18T00:21:33;98799.97;;;0.77;63.24
61900;BME280;47853;55.890;37.664;2022-12-18T00:23:59;98780.84;;;0.77;63.69
61900;BME280;47853;55.890;37.664;2022-12-18T00:26:28;98781.91;;;0.85;63.40
61900;BME280;47853;55.890;37.664;2022-12-18T00:28:54;98786.66;;;0.92;63.17
61900;BME280;47853;55.890;37.664;2022-12-18T00:31:22;98781.63;;;1.00;62.76
61900;BME280;47853;55.890;37.664;2022-12-18T00:33:50;98773.56;;;1.03;62.69
61900;BME280;47853;55.890;37.664;2022-12-18T00:36:18;98765.72;;;1.03;62.76
61900;BME280;47853;55.890;37.664;2022-12-18T00:38:45;98766.78;;;1.12;61.82
61900;BME280;47853;55.890;37.664;2022-12-18T00:41:13;98757.63;;;1.06;61.89
61900;BME280;47853;55.890;37.664;2022-12-18T00:43:39;98696.72;;;0.71;61.95
61900;BME280;47853;55.890;37.664;2022-12-18T00:46:05;98753.59;;;1.13;61.67
61900;BME280;47853;55.890;37.664;2022-12-18T00:48:31;98722.81;;;1.06;61.57
61900;BME280;47853;55.890;37.664;2022-12-18T00:50:56;98726.63;;;1.01;60.95
61900;BME280;47853;55.890;37.664;2022-12-18T00:53:22;98701.22;;;0.92;61.19
61900;BME280;47853;55.890;37.664;2022-12-18T00:55:47;98736.09;;;1.14;61.15
61900;BME280;47853;55.890;37.664;2022-12-18T00:58:14;98731.97;;;1.11;60.99
61900;BME280;47853;55.890;37.664;2022-12-18T01:00:46;98714.38;;;1.02;61.12
61900;BME280;47853;55.890;37.664;2022-12-18T01:03:14;98724.47;;;1.07;61.35
61900;BME280;47853;55.890;37.664;2022-12-18T01:05:41;98703.78;;;1.04;61.00
61900;BME280;47853;55.890;37.664;2022-12-18T01:08:09;98710.28;;;1.09;60.24
61900;BME280;47853;55.890;37.664;2022-12-18T01:10:34;98687.84;;;1.07;61.08
61900;BME280;47853;55.890;37.664;2022-12-18T01:13:00;98707.31;;;1.14;60.85
61900;BME280;47853;55.890;37.664;2022-12-18T01:15:25;98701.34;;;1.23;60.74
61900;BME280;47853;55.890;37.664;2022-12-18T01:17:52;98717.50;;;1.28;59.91
61900;BME280;47853;55.890;37.664;2022-12-18T01:20:17;98711.09;;;1.21;60.33
61900;BME280;47853;55.890;37.664;2022-12-18T01:22:43;98687.25;;;1.14;60.37
61900;BME280;47853;55.890;37.664;2022-12-18T01:25:08;98705.38;;;1.27;60.19
61900;BME280;47853;55.890;37.664;2022-12-18T01:27:36;98688.25;;;1.23;60.80
61900;BME280;47853;55.890;37.664;2022-12-18T01:30:02;98688.34;;;1.33;60.12
61900;BME280;47853;55.890;37.664;2022-12-18T01:32:30;98683.13;;;1.33;60.65
61900;BME280;47853;55.890;37.664;2022-12-18T01:34:55;98682.59;;;1.39;61.10
61900;BME280;47853;55.890;37.664;2022-12-18T01:37:20;98682.50;;;1.41;61.51
61900;BME280;47853;55.890;37.664;2022-12-18T01:39:49;98674.84;;;1.49;62.21
61900;BME280;47853;55.890;37.664;2022-12-18T01:42:15;98635.66;;;1.38;61.92
61900;BME280;47853;55.890;37.664;2022-12-18T01:47:19;98675.53;;;1.72;61.04
61900;BME280;47853;55.890;37.664;2022-12-18T01:49:45;98666.72;;;1.73;61.22
61900;BME280;47853;55.890;37.664;2022-12-18T01:52:10;98687.91;;;1.92;60.88
61900;BME280;47853;55.890;37.664;2022-12-18T01:54:36;98666.09;;;1.81;60.52
61900;BME280;47853;55.890;37.664;2022-12-18T01:57:01;98676.34;;;1.94;60.23
61900;BME280;47853;55.890;37.664;2022-12-18T01:59:27;98668.22;;;1.97;60.23
61900;BME280;47853;55.890;37.664;2022-12-18T02:01:54;98649.72;;;1.89;60.64
61900;BME280;47853;55.890;37.664;2022-12-18T02:04:25;98664.97;;;2.05;59.87
61900;BME280;47853;55.890;37.664;2022-12-18T02:06:56;98662.75;;;2.10;59.09
61900;BME280;47853;55.890;37.664;2022-12-18T02:09:27;98676.63;;;2.22;57.91
61900;BME280;47853;55.890;37.664;2022-12-18T02:12:25;98680.72;;;2.15;58.17
61900;BME280;47853;55.890;37.664;2022-12-18T02:15:06;98672.69;;;2.07;58.05
61900;BME280;47853;55.890;37.664;2022-12-18T02:17:47;98678.38;;;2.12;58.16
61900;BME280;47853;55.890;37.664;2022-12-18T02:20:38;98681.50;;;2.06;59.04
61900;BME280;47853;55.890;37.664;2022-12-18T02:23:32;98678.91;;;2.06;59.88
61900;BME280;47853;55.890;37.664;2022-12-18T02:26:02;98678.91;;;2.15;58.67
61900;BME280;47853;55.890;37.664;2022-12-18T02:28:35;98678.09;;;2.15;58.22
61900;BME280;47853;55.890;37.664;2022-12-18T02:31:04;98691.91;;;2.17;58.79
61900;BME280;47853;55.890;37.664;2022-12-18T02:33:32;98676.28;;;2.15;59.22
61900;BME280;47853;55.890;37.664;2022-12-18T02:35:59;98693.34;;;2.31;57.94
61900;BME280;47853;55.890;37.664;2022-12-18T02:38:25;98690.47;;;2.34;56.92
61900;BME280;47853;55.890;37.664;2022-12-18T02:40:53;98690.03;;;2.29;56.62
61900;BME280;47853;55.890;37.664;2022-12-18T02:43:19;98683.94;;;2.28;56.41
61900;BME280;47853;55.890;37.664;2022-12-18T02:45:50;98670.56;;;2.22;56.43
61900;BME280;47853;55.890;37.664;2022-12-18T02:48:18;98675.06;;;2.20;57.71
61900;BME280;47853;55.890;37.664;2022-12-18T02:50:58;98682.81;;;2.21;57.45
61900;BME280;47853;55.890;37.664;2022-12-18T02:53:37;98683.50;;;2.23;57.98
61900;BME280;47853;55.890;37.664;2022-12-18T02:56:19;98679.41;;;2.30;56.90
61900;BME280;47853;55.890;37.664;2022-12-18T02:59:15;98675.28;;;2.28;56.64
61900;BME280;47853;55.890;37.664;2022-12-18T03:06:54;98676.50;;;2.24;55.91
61900;BME280;47853;55.890;37.664;2022-12-18T03:09:42;98654.03;;;2.00;57.22
61900;BME280;47853;55.890;37.664;2022-12-18T03:12:27;98661.69;;;2.13;57.01
61900;BME280;47853;55.890;37.664;2022-12-18T03:17:31;98658.22;;;2.12;56.31
61900;BME280;47853;55.890;37.664;2022-12-18T03:20:02;98660.59;;;2.15;55.96
61900;BME280;47853;55.890;37.664;2022-12-18T03:22:30;98648.31;;;2.16;55.63
61900;BME280;47853;55.890;37.664;2022-12-18T03:24:58;98647.31;;;2.07;55.52
61900;BME280;47853;55.890;37.664;2022-12-18T03:27:27;98659.44;;;2.08;55.61
61900;BME280;47853;55.890;37.664;2022-12-18T03:32:30;98670.13;;;1.95;56.58
61900;BME280;47853;55.890;37.664;2022-12-18T03:35:00;98674.19;;;1.99;56.03
61900;BME280;47853;55.890;37.664;2022-12-18T03:37:31;98641.84;;;1.89;56.36
61900;BME280;47853;55.890;37.664;2022-12-18T03:39:57;98660.88;;;1.91;57.50
61900;BME280;47853;55.890;37.664;2022-12-18T03:55:42;98684.88;;;1.96;56.29
61900;BME280;47853;55.890;37.664;2022-12-18T03:58:20;98691.78;;;1.97;56.60
61900;BME280;47853;55.890;37.664;2022-12-18T04:00:49;98667.41;;;1.97;55.72
61900;BME280;47853;55.890;37.664;2022-12-18T04:03:18;98654.41;;;1.85;57.04
61900;BME280;47853;55.890;37.664;2022-12-18T04:05:45;98667.97;;;2.00;56.12
61900;BME280;47853;55.890;37.664;2022-12-18T04:08:13;98655.78;;;1.90;56.09
61900;BME280;47853;55.890;37.664;2022-12-18T04:10:39;98654.50;;;1.84;55.92
61900;BME280;47853;55.890;37.664;2022-12-18T04:13:04;98659.38;;;1.88;56.08
61900;BME280;47853;55.890;37.664;2022-12-18T04:15:32;98646.91;;;1.81;56.29
61900;BME280;47853;55.890;37.664;2022-12-18T04:17:59;98641.69;;;1.81;56.58
61900;BME280;47853;55.890;37.664;2022-12-18T04:20:24;98663.66;;;1.90;56.75
61900;BME280;47853;55.890;37.664;2022-12-18T04:22:50;98677.72;;;1.98;55.61
61900;BME280;47853;55.890;37.664;2022-12-18T04:25:15;98670.41;;;1.92;56.23
61900;BME280;47853;55.890;37.664;2022-12-18T04:27:40;98670.13;;;1.95;56.19
61900;BME280;47853;55.890;37.664;2022-12-18T04:30:06;98658.50;;;1.78;55.93
61900;BME280;47853;55.890;37.664;2022-12-18T04:32:33;98680.50;;;1.97;55.64
61900;BME280;47853;55.890;37.664;2022-12-18T04:34:58;98686.69;;;1.96;55.96
61900;BME280;47853;55.890;37.664;2022-12-18T04:37:24;98699.09;;;1.94;56.61
61900;BME280;47853;55.890;37.664;2022-12-18T04:39:49;98675.88;;;1.79;56.17
61900;BME280;47853;55.890;37.664;2022-12-18T04:42:14;98704.31;;;1.94;56.91
61900;BME280;47853;55.890;37.664;2022-12-18T04:44:40;98719.59;;;1.88;58.42
61900;BME280;47853;55.890;37.664;2022-12-18T04:47:05;98735.75;;;1.94;57.80
61900;BME280;47853;55.890;37.664;2022-12-18T04:49:30;98741.09;;;1.92;57.73
61900;BME280;47853;55.890;37.664;2022-12-18T04:51:56;98742.28;;;1.99;57.54
61900;BME280;47853;55.890;37.664;2022-12-18T04:54:21;98765.50;;;2.14;58.11
61900;BME280;47853;55.890;37.664;2022-12-18T04:56:46;98760.28;;;2.14;58.83
61900;BME280;47853;55.890;37.664;2022-12-18T04:59:13;98751.03;;;2.20;58.09
61900;BME280;47853;55.890;37.664;2022-12-18T05:01:39;98760.72;;;2.19;58.40
61900;BME280;47853;55.890;37.664;2022-12-18T05:04:04;98759.31;;;2.15;59.29
61900;BME280;47853;55.890;37.664;2022-12-18T05:06:29;98764.88;;;2.22;58.60
61900;BME280;47853;55.890;37.664;2022-12-18T05:08:55;98766.53;;;2.23;59.06
61900;BME280;47853;55.890;37.664;2022-12-18T05:11:20;98765.59;;;2.34;57.90
61900;BME280;47853;55.890;37.664;2022-12-18T05:13:45;98750.16;;;2.30;58.72
61900;BME280;47853;55.890;37.664;2022-12-18T05:16:11;98736.50;;;2.37;57.99
61900;BME280;47853;55.890;37.664;2022-12-18T05:18:37;98743.03;;;2.42;56.00
61900;BME280;47853;55.890;37.664;2022-12-18T05:21:03;98729.50;;;2.37;55.04
61900;BME280;47853;55.890;37.664;2022-12-18T05:23:28;98741.38;;;2.41;53.69
61900;BME280;47853;55.890;37.664;2022-12-18T05:25:56;98753.09;;;2.37;53.76
61900;BME280;47853;55.890;37.664;2022-12-18T05:28:23;98727.28;;;2.11;55.77
61900;BME280;47853;55.890;37.664;2022-12-18T05:30:53;98750.56;;;2.26;55.22
61900;BME280;47853;55.890;37.664;2022-12-18T05:33:21;98749.00;;;2.23;56.00
61900;BME280;47853;55.890;37.664;2022-12-18T05:35:54;98762.25;;;2.22;55.52
61900;BME280;47853;55.890;37.664;2022-12-18T05:38:21;98782.38;;;2.21;56.76
61900;BME280;47853;55.890;37.664;2022-12-18T05:40:48;98777.22;;;2.10;58.09
61900;BME280;47853;55.890;37.664;2022-12-18T05:43:14;98763.84;;;2.13;57.07
61900;BME280;47853;55.890;37.664;2022-12-18T05:45:40;98768.06;;;2.25;56.06
61900;BME280;47853;55.890;37.664;2022-12-18T05:48:06;98781.59;;;2.30;54.70
61900;BME280;47853;55.890;37.664;2022-12-18T05:50:40;98781.41;;;2.22;54.73
61900;BME280;47853;55.890;37.664;2022-12-18T05:53:06;98792.75;;;2.23;54.80
61900;BME280;47853;55.890;37.664;2022-12-18T05:55:48;98794.41;;;2.24;54.36
61900;BME280;47853;55.890;37.664;2022-12-18T05:58:14;98794.06;;;2.17;54.42
61900;BME280;47853;55.890;37.664;2022-12-18T06:00:45;98811.78;;;2.25;55.02
61900;BME280;47853;55.890;37.664;2022-12-18T06:03:11;98821.75;;;2.31;54.87
61900;BME280;47853;55.890;37.664;2022-12-18T06:05:42;98812.47;;;2.27;54.53
61900;BME280;47853;55.890;37.664;2022-12-18T06:08:07;98830.41;;;2.31;54.62
61900;BME280;47853;55.890;37.664;2022-12-18T06:10:33;98844.09;;;2.35;54.73
61900;BME280;47853;55.890;37.664;2022-12-18T06:12:58;98845.44;;;2.29;55.58
61900;BME280;47853;55.890;37.664;2022-12-18T06:15:27;98842.56;;;2.32;55.09
61900;BME280;47853;55.890;37.664;2022-12-18T06:17:52;98816.63;;;2.29;54.96
61900;BME280;47853;55.890;37.664;2022-12-18T06:20:18;98843.84;;;2.38;53.72
61900;BME280;47853;55.890;37.664;2022-12-18T06:22:44;98846.53;;;2.27;55.10
61900;BME280;47853;55.890;37.664;2022-12-18T06:25:09;98848.31;;;2.26;56.01
61900;BME280;47853;55.890;37.664;2022-12-18T06:27:34;98837.13;;;2.24;54.79
61900;BME280;47853;55.890;37.664;2022-12-18T06:30:00;98856.75;;;2.30;54.59
61900;BME280;47853;55.890;37.664;2022-12-18T06:32:25;98831.31;;;2.21;53.82
61900;BME280;47853;55.890;37.664;2022-12-18T06:34:51;98862.00;;;2.30;54.16
61900;BME280;47853;55.890;37.664;2022-12-18T06:37:16;98870.16;;;2.37;53.19
61900;BME280;47853;55.890;37.664;2022-12-18T06:39:42;98866.84;;;2.35;53.33
61900;BME280;47853;55.890;37.664;2022-12-18T06:42:07;98857.19;;;2.14;55.10
61900;BME280;47853;55.890;37.664;2022-12-18T06:44:32;98871.66;;;2.29;55.02
61900;BME280;47853;55.890;37.664;2022-12-18T06:46:58;98850.75;;;2.18;55.55
61900;BME280;47853;55.890;37.664;2022-12-18T06:49:23;98873.63;;;2.37;54.98
61900;BME280;47853;55.890;37.664;2022-12-18T06:51:49;98874.84;;;2.33;54.84
61900;BME280;47853;55.890;37.664;2022-12-18T06:54:14;98876.50;;;2.34;54.69
61900;BME280;47853;55.890;37.664;2022-12-18T06:56:39;98889.72;;;2.32;56.60
61900;BME280;47853;55.890;37.664;2022-12-18T06:59:05;98904.84;;;2.40;56.01
61900;BME280;47853;55.890;37.664;2022-12-18T07:01:30;98909.94;;;2.42;56.58
61900;BME280;47853;55.890;37.664;2022-12-18T07:03:58;98879.06;;;2.24;55.69
61900;BME280;47853;55.890;37.664;2022-12-18T07:06:25;98906.59;;;2.40;56.66
61900;BME280;47853;55.890;37.664;2022-12-18T07:08:52;98901.59;;;2.48;55.79
61900;BME280;47853;55.890;37.664;2022-12-18T07:11:26;98899.34;;;2.43;54.36
61900;BME280;47853;55.890;37.664;2022-12-18T07:13:52;98933.53;;;2.63;54.46
61900;BME280;47853;55.890;37.664;2022-12-18T07:16:19;98937.25;;;2.60;54.16
61900;BME280;47853;55.890;37.664;2022-12-18T07:18:44;98927.03;;;2.57;54.33
61900;BME280;47853;55.890;37.664;2022-12-18T07:21:13;98927.78;;;2.48;54.98
61900;BME280;47853;55.890;37.664;2022-12-18T07:23:39;98919.25;;;2.35;54.66
61900;BME280;47853;55.890;37.664;2022-12-18T07:26:10;98930.53;;;2.46;54.47
61900;BME280;47853;55.890;37.664;2022-12-18T07:28:36;98928.88;;;2.45;54.49
61900;BME280;47853;55.890;37.664;2022-12-18T07:31:10;98927.09;;;2.46;53.77
61900;BME280;47853;55.890;37.664;2022-12-18T07:33:35;98923.53;;;2.36;55.26
61900;BME280;47853;55.890;37.664;2022-12-18T07:36:02;98944.16;;;2.40;54.71
61900;BME280;47853;55.890;37.664;2022-12-18T07:38:29;98971.50;;;2.47;54.93
61900;BME280;47853;55.890;37.664;2022-12-18T07:40:54;98970.88;;;2.55;55.71
61900;BME280;47853;55.890;37.664;2022-12-18T07:43:20;98966.97;;;2.50;55.01
61900;BME280;47853;55.890;37.664;2022-12-18T07:45:45;98987.06;;;2.60;55.22
61900;BME280;47853;55.890;37.664;2022-12-18T07:48:10;98981.22;;;2.57;55.79
61900;BME280;47853;55.890;37.664;2022-12-18T07:50:39;98992.41;;;2.70;54.79
61900;BME280;47853;55.890;37.664;2022-12-18T07:53:04;98984.13;;;2.75;54.08
61900;BME280;47853;55.890;37.664;2022-12-18T07:55:31;98991.88;;;2.77;54.04
61900;BME280;47853;55.890;37.664;2022-12-18T07:57:56;98992.59;;;2.79;53.49
61900;BME280;47853;55.890;37.664;2022-12-18T08:00:21;98972.38;;;2.69;53.37
61900;BME280;47853;55.890;37.664;2022-12-18T08:02:47;98976.25;;;2.75;52.64
61900;BME280;47853;55.890;37.664;2022-12-18T08:05:12;98994.63;;;2.75;53.15
61900;BME280;47853;55.890;37.664;2022-12-18T08:07:37;98986.88;;;2.73;54.07
61900;BME280;47853;55.890;37.664;2022-12-18T08:10:03;98996.28;;;2.76;53.55
61900;BME280;47853;55.890;37.664;2022-12-18T08:12:28;98992.41;;;2.70;54.64
61900;BME280;47853;55.890;37.664;2022-12-18T08:14:54;98983.94;;;2.67;54.25
61900;BME280;47853;55.890;37.664;2022-12-18T08:17:19;98980.72;;;2.63;53.99
61900;BME280;47853;55.890;37.664;2022-12-18T08:19:45;98989.88;;;2.69;54.37
61900;BME280;47853;55.890;37.664;2022-12-18T08:22:10;99000.13;;;2.72;54.50
61900;BME280;47853;55.890;37.664;2022-12-18T08:24:35;99007.88;;;2.73;53.51
61900;BME280;47853;55.890;37.664;2022-12-18T08:27:01;99039.91;;;2.77;55.52
61900;BME280;47853;55.890;37.664;2022-12-18T08:29:26;99031.41;;;2.85;54.98
61900;BME280;47853;55.890;37.664;2022-12-18T08:31:52;99028.59;;;2.77;55.71
61900;BME280;47853;55.890;37.664;2022-12-18T08:34:17;99034.94;;;2.95;55.10
61900;BME280;47853;55.890;37.664;2022-12-18T08:36:42;99051.25;;;2.99;54.01
61900;BME280;47853;55.890;37.664;2022-12-18T08:39:08;99065.84;;;2.92;54.68
61900;BME280;47853;55.890;37.664;2022-12-18T08:41:33;99054.97;;;2.96;53.70
61900;BME280;47853;55.890;37.664;2022-12-18T08:43:59;99062.25;;;2.93;53.92
61900;BME280;47853;55.890;37.664;2022-12-18T08:46:25;99053.72;;;2.79;55.19
61900;BME280;47853;55.890;37.664;2022-12-18T08:48:52;99053.00;;;2.77;55.17
61900;BME280;47853;55.890;37.664;2022-12-18T08:51:18;99086.44;;;2.96;55.42
61900;BME280;47853;55.890;37.664;2022-12-18T08:53:44;99076.66;;;2.98;56.04
61900;BME280;47853;55.890;37.664;2022-12-18T08:56:10;99079.59;;;3.05;55.91
61900;BME280;47853;55.890;37.664;2022-12-18T08:58:36;99077.78;;;3.05;55.54
61900;BME280;47853;55.890;37.664;2022-12-18T09:01:08;99070.16;;;3.14;56.02
61900;BME280;47853;55.890;37.664;2022-12-18T09:03:34;99044.22;;;2.99;55.82
61900;BME280;47853;55.890;37.664;2022-12-18T09:06:00;99067.53;;;3.14;57.10
61900;BME280;47853;55.890;37.664;2022-12-18T09:08:26;99067.31;;;3.05;57.65
61900;BME280;47853;55.890;37.664;2022-12-18T09:10:51;99064.50;;;3.18;57.57
61900;BME280;47853;55.890;37.664;2022-12-18T09:13:17;99071.81;;;3.15;59.10
61900;BME280;47853;55.890;37.664;2022-12-18T09:15:53;99068.09;;;3.17;58.27
61900;BME280;47853;55.890;37.664;2022-12-18T09:18:20;99062.28;;;3.14;58.47
61900;BME280;47853;55.890;37.664;2022-12-18T09:20:46;99074.72;;;3.00;60.07
61900;BME280;47853;55.890;37.664;2022-12-18T09:23:12;99095.38;;;3.26;60.17
61900;BME280;47853;55.890;37.664;2022-12-18T09:25:37;99098.06;;;3.36;59.67
61900;BME280;47853;55.890;37.664;2022-12-18T09:28:06;99096.84;;;3.40;58.72
61900;BME280;47853;55.890;37.664;2022-12-18T09:30:31;99091.84;;;3.37;59.83
61900;BME280;47853;55.890;37.664;2022-12-18T09:32:56;99102.34;;;3.37;60.38
61900;BME280;47853;55.890;37.664;2022-12-18T09:35:22;99107.53;;;3.48;58.25
61900;BME280;47853;55.890;37.664;2022-12-18T09:37:47;99114.69;;;3.46;58.42
61900;BME280;47853;55.890;37.664;2022-12-18T09:40:14;99110.25;;;3.26;59.51
61900;BME280;47853;55.890;37.664;2022-12-18T09:42:44;99115.22;;;3.40;57.73
61900;BME280;47853;55.890;37.664;2022-12-18T09:45:13;99135.88;;;3.55;57.47
61900;BME280;47853;55.890;37.664;2022-12-18T09:47:40;99141.97;;;3.55;58.23
61900;BME280;47853;55.890;37.664;2022-12-18T09:52:48;99149.34;;;3.61;59.50
61900;BME280;47853;55.890;37.664;2022-12-18T09:55:29;99141.31;;;3.42;60.54
61900;BME280;47853;55.890;37.664;2022-12-18T09:58:02;99156.00;;;3.66;60.07
61900;BME280;47853;55.890;37.664;2022-12-18T10:00:29;99159.31;;;3.68;60.08
61900;BME280;47853;55.890;37.664;2022-12-18T10:03:03;99160.03;;;3.70;58.31
61900;BME280;47853;55.890;37.664;2022-12-18T10:11:43;99168.16;;;3.67;57.19
61900;BME280;47853;55.890;37.664;2022-12-18T10:14:30;99165.91;;;3.41;59.14
61900;BME280;47853;55.890;37.664;2022-12-18T10:17:37;99169.22;;;3.54;57.68
61900;BME280;47853;55.890;37.664;2022-12-18T10:20:38;99179.44;;;3.57;56.25
61900;BME280;47853;55.890;37.664;2022-12-18T10:23:23;99176.13;;;3.55;54.64
61900;BME280;47853;55.890;37.664;2022-12-18T10:25:55;99172.91;;;3.52;54.45
61900;BME280;47853;55.890;37.664;2022-12-18T10:28:29;99177.81;;;3.45;55.27
61900;BME280;47853;55.890;37.664;2022-12-18T10:30:55;99180.50;;;3.33;57.05
61900;BME280;47853;55.890;37.664;2022-12-18T10:33:22;99172.97;;;3.40;55.46
61900;BME280;47853;55.890;37.664;2022-12-18T10:35:50;99188.28;;;3.35;56.40
61900;BME280;47853;55.890;37.664;2022-12-18T10:40:54;99182.88;;;3.37;58.25
61900;BME280;47853;55.890;37.664;2022-12-18T10:43:22;99191.25;;;3.30;59.52
61900;BME280;47853;55.890;37.664;2022-12-18T10:48:34;99187.25;;;3.47;59.02
61900;BME280;47853;55.890;37.664;2022-12-18T10:51:01;99196.19;;;3.45;59.44
61900;BME280;47853;55.890;37.664;2022-12-18T10:53:28;99182.69;;;3.50;57.36
61900;BME280;47853;55.890;37.664;2022-12-18T10:55:56;99186.41;;;3.47;56.13
61900;BME280;47853;55.890;37.664;2022-12-18T10:58:37;99184.72;;;3.46;56.53
61900;BME280;47853;55.890;37.664;2022-12-18T11:01:12;99208.69;;;3.53;55.69
61900;BME280;47853;55.890;37.664;2022-12-18T11:03:41;99190.38;;;3.41;55.48
61900;BME280;47853;55.890;37.664;2022-12-18T11:06:14;99210.19;;;3.45;56.63
61900;BME280;47853;55.890;37.664;2022-12-18T11:08:56;99220.69;;;3.45;57.38
61900;BME280;47853;55.890;37.664;2022-12-18T11:11:23;99222.59;;;3.43;58.25
61900;BME280;47853;55.890;37.664;2022-12-18T11:13:59;99228.28;;;3.48;57.17
61900;BME280;47853;55.890;37.664;2022-12-18T11:16:27;99230.78;;;3.50;55.34
61900;BME280;47853;55.890;37.664;2022-12-18T11:18:53;99239.75;;;3.47;55.65
61900;BME280;47853;55.890;37.664;2022-12-18T11:21:18;99236.44;;;3.45;56.51
61900;BME280;47853;55.890;37.664;2022-12-18T11:23:51;99235.28;;;3.38;58.19
61900;BME280;47853;55.890;37.664;2022-12-18T11:26:17;99233.47;;;3.39;57.15
61900;BME280;47853;55.890;37.664;2022-12-18T11:28:47;99251.13;;;3.37;58.25
61900;BME280;47853;55.890;37.664;2022-12-18T11:31:28;99263.63;;;3.44;57.90
61900;BME280;47853;55.890;37.664;2022-12-18T11:34:26;99265.75;;;3.51;57.43
61900;BME280;47853;55.890;37.664;2022-12-18T11:36:53;99269.09;;;3.53;56.52
61900;BME280;47853;55.890;37.664;2022-12-18T11:44:50;99269.97;;;3.42;54.54
61900;BME280;47853;55.890;37.664;2022-12-18T11:50:44;99255.38;;;3.16;58.54
61900;BME280;47853;55.890;37.664;2022-12-18T11:53:12;99272.53;;;3.21;59.60
61900;BME280;47853;55.890;37.664;2022-12-18T11:58:45;99270.81;;;3.31;59.02
61900;BME280;47853;55.890;37.664;2022-12-18T12:03:50;99277.38;;;3.37;57.42
61900;BME280;47853;55.890;37.664;2022-12-18T12:17:42;99323.59;;;3.16;55.60
61900;BME280;47853;55.890;37.664;2022-12-18T12:23:03;99332.66;;;3.12;56.51
61900;BME280;47853;55.890;37.664;2022-12-18T12:25:41;99342.91;;;3.15;55.03
61900;BME280;47853;55.890;37.664;2022-12-18T12:28:31;99352.00;;;3.11;56.40
61900;BME280;47853;55.890;37.664;2022-12-18T12:37:04;99350.94;;;2.91;57.41
61900;BME280;47853;55.890;37.664;2022-12-18T12:39:36;99345.81;;;2.89;57.25
61900;BME280;47853;55.890;37.664;2022-12-18T12:42:06;99364.41;;;2.98;57.75
61900;BME280;47853;55.890;37.664;2022-12-18T12:44:45;99369.88;;;3.06;57.90
61900;BME280;47853;55.890;37.664;2022-12-18T12:47:16;99384.81;;;3.17;58.43
61900;BME280;47853;55.890;37.664;2022-12-18T12:49:45;99377.66;;;3.19;58.41
61900;BME280;47853;55.890;37.664;2022-12-18T12:54:58;99395.03;;;3.31;57.45
61900;BME280;47853;55.890;37.664;2022-12-18T12:57:33;99388.94;;;3.31;57.74
61900;BME280;47853;55.890;37.664;2022-12-18T13:00:07;99402.56;;;3.36;58.19
61900;BME280;47853;55.890;37.664;2022-12-18T13:05:46;99417.84;;;3.42;56.34
61900;BME280;47853;55.890;37.664;2022-12-18T13:08:29;99428.34;;;3.42;55.64
61900;BME280;47853;55.890;37.664;2022-12-18T13:10:55;99427.16;;;3.35;56.30
61900;BME280;47853;55.890;37.664;2022-12-18T13:13:21;99436.69;;;3.36;56.69
61900;BME280;47853;55.890;37.664;2022-12-18T13:16:05;99446.25;;;3.37;56.80
61900;BME280;47853;55.890;37.664;2022-12-18T13:18:32;99449.69;;;3.38;56.02
61900;BME280;47853;55.890;37.664;2022-12-18T13:28:24;99464.34;;;3.29;56.04
61900;BME280;47853;55.890;37.664;2022-12-18T13:31:08;99451.38;;;3.16;56.92
61900;BME280;47853;55.890;37.664;2022-12-18T13:33:37;99479.66;;;3.35;57.20
61900;BME280;47853;55.890;37.664;2022-12-18T13:38:41;99488.72;;;3.42;57.52
61900;BME280;47853;55.890;37.664;2022-12-18T13:43:41;99498.03;;;3.46;56.47
61900;BME280;47853;55.890;37.664;2022-12-18T13:46:27;99506.84;;;3.45;56.29
61900;BME280;47853;55.890;37.664;2022-12-18T13:48:57;99526.53;;;3.40;55.95
61900;BME280;47853;55.890;37.664;2022-12-18T13:51:24;99505.78;;;3.25;56.02
61900;BME280;47853;55.890;37.664;2022-12-18T13:54:02;99527.97;;;3.32;56.76
61900;BME280;47853;55.890;37.664;2022-12-18T13:56:32;99535.22;;;3.29;56.25
61900;BME280;47853;55.890;37.664;2022-12-18T14:01:54;99543.09;;;3.29;55.66
61900;BME280;47853;55.890;37.664;2022-12-18T14:04:32;99544.78;;;3.30;55.84
61900;BME280;47853;55.890;37.664;2022-12-18T14:07:12;99549.81;;;3.33;56.02
61900;BME280;47853;55.890;37.664;2022-12-18T14:09:57;99558.97;;;3.27;55.54
61900;BME280;47853;55.890;37.664;2022-12-18T14:12:28;99558.59;;;3.21;56.96
61900;BME280;47853;55.890;37.664;2022-12-18T14:14:55;99554.56;;;3.28;56.04
61900;BME280;47853;55.890;37.664;2022-12-18T14:17:20;99557.66;;;3.22;55.55
61900;BME280;47853;55.890;37.664;2022-12-18T14:19:48;99580.69;;;3.29;56.66
61900;BME280;47853;55.890;37.664;2022-12-18T14:22:23;99591.44;;;3.38;56.56
61900;BME280;47853;55.890;37.664;2022-12-18T14:25:13;99589.53;;;3.40;56.22
61900;BME280;47853;55.890;37.664;2022-12-18T14:28:02;99582.84;;;3.36;56.91
61900;BME280;47853;55.890;37.664;2022-12-18T14:33:26;99600.97;;;3.27;58.11
61900;BME280;47853;55.890;37.664;2022-12-18T14:37:28;99610.38;;;3.18;56.66
61900;BME280;47853;55.890;37.664;2022-12-18T14:48:41;99623.50;;;2.45;59.78
61900;BME280;47853;55.890;37.664;2022-12-18T15:28:23;99702.16;;;-0.43;67.01
61900;BME280;47853;55.890;37.664;2022-12-18T15:36:21;99696.63;;;0.35;64.27
61900;BME280;47853;55.890;37.664;2022-12-18T15:38:48;99693.81;;;0.53;64.00
61900;BME280;47853;55.890;37.664;2022-12-18T15:41:16;99702.25;;;0.85;63.19
61900;BME280;47853;55.890;37.664;2022-12-18T15:43:42;99687.75;;;0.94;62.95